Tindouf, Algeria
Current Conditions -  °F | °C
As of 10:00 PM on Sunday 23 Nov 2014 (Local Time) from DAOF Reporting Station
Moderate Rain Moderate Rain  
Wind Chill: 59°   Ceiling: 3300
Heat Index: 59°   Visibility: 4mi
Dew Point: 55°   Wind: 5mph
Humidity: 88%   Direction: 260°W
Pressure: 30"   Gusts: NA
Location:  27.67°N, 8.15°W
Report Text: DAOF 232100Z 26004KT 7000 RA FEW026 FEW030 BKN033 15/13 Q1016
Loading
Personal Weather Stations






























Interactive Weather Map New forecast layout! Learn more

10-Day Weather Forecast

Advertisements
Track Severe Weather on mobile